createdAt,value
2019-02-18T00:00:27.893Z,0.00
2019-02-18T00:01:27.908Z,0.00
2019-02-18T00:02:27.924Z,0.00
2019-02-18T00:03:27.921Z,0.00
2019-02-18T00:04:27.922Z,0.00
2019-02-18T00:05:27.925Z,0.00
2019-02-18T00:06:27.930Z,0.00
2019-02-18T00:07:27.946Z,0.00
2019-02-18T00:08:27.945Z,0.00
2019-02-18T00:09:27.948Z,0.00
2019-02-18T00:10:27.949Z,0.00
2019-02-18T00:11:27.961Z,0.00
2019-02-18T00:12:27.965Z,0.00
2019-02-18T00:13:27.986Z,0.00
2019-02-18T00:14:27.981Z,0.00
2019-02-18T00:15:27.972Z,0.00
2019-02-18T00:16:27.987Z,0.00
2019-02-18T00:17:27.991Z,0.00
2019-02-18T00:18:27.996Z,0.00
2019-02-18T00:19:28.008Z,0.00
2019-02-18T00:20:28.000Z,0.00
2019-02-18T00:21:28.011Z,0.00
2019-02-18T00:22:28.019Z,0.00
2019-02-18T00:23:28.019Z,0.00
2019-02-18T00:24:28.035Z,0.00
2019-02-18T00:25:28.035Z,0.00
2019-02-18T00:26:28.036Z,0.00
2019-02-18T00:27:28.045Z,0.00
2019-02-18T00:28:28.054Z,0.00
2019-02-18T00:29:28.054Z,0.00
2019-02-18T00:30:28.064Z,0.00
2019-02-18T00:31:28.068Z,0.00
2019-02-18T00:32:28.067Z,0.00
2019-02-18T00:33:28.087Z,0.00
2019-02-18T00:34:28.085Z,0.00
2019-02-18T00:35:28.086Z,0.00
2019-02-18T00:36:28.092Z,0.00
2019-02-18T00:37:28.088Z,0.00
2019-02-18T00:38:28.135Z,0.00
2019-02-18T00:39:28.107Z,0.00
2019-02-18T00:40:28.131Z,0.00
2019-02-18T00:41:28.121Z,0.00
2019-02-18T00:42:28.136Z,0.00
2019-02-18T00:43:28.133Z,0.00
2019-02-18T00:44:28.134Z,0.00
2019-02-18T00:45:28.143Z,0.00
2019-02-18T00:46:28.147Z,0.00
2019-02-18T00:47:28.162Z,0.00
2019-02-18T00:48:28.149Z,0.00
2019-02-18T00:49:28.163Z,0.00
2019-02-18T00:50:28.165Z,0.00
2019-02-18T00:51:28.177Z,0.00
2019-02-18T00:52:28.177Z,0.00
2019-02-18T00:53:28.183Z,0.00
2019-02-18T00:54:28.187Z,0.00
2019-02-18T00:55:28.191Z,0.00
2019-02-18T00:56:28.200Z,0.00
2019-02-18T00:57:28.206Z,0.00
2019-02-18T00:58:28.221Z,0.00
2019-02-18T00:59:28.216Z,0.00
2019-02-18T01:00:28.237Z,0.00
2019-02-18T01:01:28.231Z,0.00
2019-02-18T01:02:28.230Z,0.00
2019-02-18T01:03:28.239Z,0.00
2019-02-18T01:04:28.241Z,0.00
2019-02-18T01:05:28.245Z,0.00
2019-02-18T01:06:28.253Z,0.00
2019-02-18T01:07:34.582Z,0.00
2019-02-18T01:08:28.259Z,0.00
2019-02-18T01:09:28.267Z,0.00
2019-02-18T01:10:28.268Z,0.00
2019-02-18T01:11:28.284Z,0.00
2019-02-18T01:12:28.284Z,0.00
2019-02-18T01:13:28.275Z,0.00
2019-02-18T01:14:28.291Z,0.00
2019-02-18T01:15:28.296Z,0.00
2019-02-18T01:16:28.304Z,0.00
2019-02-18T01:17:28.305Z,0.00
2019-02-18T01:18:28.317Z,0.00
2019-02-18T01:19:28.322Z,0.00
2019-02-18T01:20:28.323Z,0.00
2019-02-18T01:21:28.326Z,0.00
2019-02-18T01:22:28.335Z,0.00
2019-02-18T01:23:28.338Z,0.00
2019-02-18T01:24:28.343Z,0.00
2019-02-18T01:25:28.349Z,0.00
2019-02-18T01:26:28.359Z,0.00
2019-02-18T01:27:28.363Z,0.00
2019-02-18T01:28:28.362Z,0.00
2019-02-18T01:29:28.364Z,0.00
2019-02-18T01:30:28.376Z,0.00
2019-02-18T01:31:28.378Z,0.00
2019-02-18T01:32:28.395Z,0.00
2019-02-18T01:33:28.387Z,0.00
2019-02-18T01:34:28.393Z,0.00
2019-02-18T01:35:28.402Z,0.00
2019-02-18T01:36:28.407Z,0.00
2019-02-18T01:37:28.413Z,0.00
2019-02-18T01:38:28.423Z,0.00
2019-02-18T01:39:28.417Z,0.00
2019-02-18T01:40:28.427Z,0.00
2019-02-18T01:41:28.432Z,0.00
2019-02-18T01:42:28.435Z,0.00
2019-02-18T01:43:28.443Z,0.00
2019-02-18T01:44:28.444Z,0.00
2019-02-18T01:45:28.449Z,0.00
2019-02-18T01:46:28.458Z,0.00
2019-02-18T01:47:28.462Z,0.00
2019-02-18T01:48:28.472Z,0.00
2019-02-18T01:49:28.479Z,0.00
2019-02-18T01:50:28.491Z,0.00
2019-02-18T01:51:28.484Z,0.00
2019-02-18T01:52:28.484Z,0.00
2019-02-18T01:53:28.492Z,0.00
2019-02-18T01:54:28.495Z,0.00
2019-02-18T01:55:28.508Z,0.00
2019-02-18T01:56:28.504Z,0.00
2019-02-18T01:57:28.510Z,0.00
2019-02-18T01:58:28.519Z,0.00
2019-02-18T01:59:28.526Z,0.00
2019-02-18T02:00:28.525Z,0.00
2019-02-18T02:01:28.533Z,0.00
2019-02-18T02:02:28.536Z,0.00
2019-02-18T02:03:28.548Z,0.00
2019-02-18T02:04:28.545Z,0.00
2019-02-18T02:05:28.551Z,0.00
2019-02-18T02:06:28.558Z,0.00
2019-02-18T02:07:28.566Z,0.00
2019-02-18T02:08:28.572Z,0.00
2019-02-18T02:09:28.574Z,0.00
2019-02-18T02:10:28.578Z,0.00
2019-02-18T02:11:28.583Z,0.00
2019-02-18T02:12:28.591Z,0.00
2019-02-18T02:13:28.593Z,0.00
2019-02-18T02:14:28.598Z,0.00
2019-02-18T02:15:28.606Z,0.00
2019-02-18T02:16:28.611Z,0.00
2019-02-18T02:17:28.612Z,0.00
2019-02-18T02:18:28.615Z,0.00
2019-02-18T02:19:28.623Z,0.00
2019-02-18T02:20:28.625Z,0.00
2019-02-18T02:21:28.635Z,0.00
2019-02-18T02:22:28.639Z,0.00
2019-02-18T02:23:28.642Z,0.00
2019-02-18T02:24:28.648Z,0.00
2019-02-18T02:25:28.649Z,0.00
2019-02-18T02:26:28.657Z,0.00
2019-02-18T02:27:28.658Z,0.00
2019-02-18T02:28:28.668Z,0.00
2019-02-18T02:29:28.669Z,0.00
2019-02-18T02:30:28.682Z,0.00
2019-02-18T02:31:28.683Z,0.00
2019-02-18T02:32:28.682Z,0.00
2019-02-18T02:33:28.689Z,0.00
2019-02-18T02:34:28.694Z,0.00
2019-02-18T02:35:28.699Z,0.00
2019-02-18T02:36:28.706Z,0.00
2019-02-18T02:37:28.711Z,0.00
2019-02-18T02:38:28.712Z,0.00
2019-02-18T02:39:28.716Z,0.00
2019-02-18T02:40:28.724Z,0.00
2019-02-18T02:41:28.731Z,0.00
2019-02-18T02:42:28.734Z,0.00
2019-02-18T02:43:28.745Z,0.00
2019-02-18T02:44:28.749Z,0.00
2019-02-18T02:45:28.754Z,0.00
2019-02-18T02:46:28.749Z,0.00
2019-02-18T02:47:28.756Z,0.00
2019-02-18T02:48:28.765Z,0.00
2019-02-18T02:49:28.767Z,0.00
2019-02-18T02:50:28.769Z,0.00
2019-02-18T02:51:28.784Z,0.00
2019-02-18T02:52:28.780Z,0.00
2019-02-18T02:53:28.788Z,0.00
2019-02-18T02:54:28.789Z,0.00
2019-02-18T02:55:28.798Z,0.00
2019-02-18T02:56:28.799Z,0.00
2019-02-18T02:57:28.801Z,0.00
2019-02-18T02:58:28.810Z,0.00
2019-02-18T02:59:28.818Z,0.00
2019-02-18T03:00:28.816Z,0.00
2019-02-18T03:01:28.825Z,0.00
2019-02-18T03:02:28.824Z,0.00
2019-02-18T03:04:28.849Z,0.00
2019-02-18T03:05:28.927Z,0.00
2019-02-18T03:06:28.857Z,0.00
2019-02-18T03:07:28.849Z,0.00
2019-02-18T03:08:28.850Z,0.00
2019-02-18T03:09:28.867Z,0.00
2019-02-18T03:10:28.860Z,0.00
2019-02-18T03:11:28.869Z,0.00
2019-02-18T03:12:28.875Z,0.00
2019-02-18T03:13:28.877Z,0.00
2019-02-18T03:14:28.878Z,0.00
2019-02-18T03:15:28.889Z,0.00
2019-02-18T03:16:28.892Z,0.00
2019-02-18T03:17:28.892Z,0.00
2019-02-18T03:18:28.900Z,0.00
2019-02-18T03:19:28.905Z,0.00
2019-02-18T03:20:28.911Z,0.00
2019-02-18T03:21:28.918Z,0.00
2019-02-18T03:22:28.917Z,0.00
2019-02-18T03:23:28.933Z,0.00
2019-02-18T03:24:28.924Z,0.00
2019-02-18T03:25:28.936Z,0.00
2019-02-18T03:26:28.944Z,0.00
2019-02-18T03:27:28.940Z,0.00
2019-02-18T03:28:28.944Z,0.00
2019-02-18T03:29:28.955Z,0.00
2019-02-18T03:30:28.962Z,0.00
2019-02-18T03:31:28.971Z,0.00
2019-02-18T03:32:28.984Z,0.00
2019-02-18T03:33:28.989Z,0.00
2019-02-18T03:34:28.977Z,0.00
2019-02-18T03:35:28.980Z,0.00
2019-02-18T03:36:28.988Z,0.00
2019-02-18T03:37:28.988Z,0.00
2019-02-18T03:38:31.639Z,0.00
2019-02-18T03:39:28.998Z,0.00
2019-02-18T03:40:29.001Z,0.00
2019-02-18T03:41:29.008Z,0.00
2019-02-18T03:42:29.011Z,0.00
2019-02-18T03:43:29.012Z,0.00
2019-02-18T03:44:29.017Z,0.00
2019-02-18T03:45:29.024Z,0.00
2019-02-18T03:46:29.026Z,0.00
2019-02-18T03:47:29.031Z,0.00
2019-02-18T03:48:29.033Z,0.00
2019-02-18T03:49:29.083Z,0.00
2019-02-18T03:50:29.046Z,0.00
2019-02-18T03:51:29.041Z,0.00
2019-02-18T03:52:29.051Z,0.00
2019-02-18T03:53:29.059Z,0.00
2019-02-18T03:54:29.062Z,0.00
2019-02-18T03:55:29.065Z,0.00
2019-02-18T03:56:29.078Z,0.00
2019-02-18T03:57:29.073Z,0.00
2019-02-18T03:58:29.080Z,0.00
2019-02-18T03:59:29.083Z,0.00
2019-02-18T04:00:29.085Z,0.00
2019-02-18T04:01:29.088Z,0.00
2019-02-18T04:02:29.095Z,0.00
2019-02-18T04:03:29.101Z,0.00
2019-02-18T04:04:29.100Z,0.00
2019-02-18T04:05:29.108Z,0.00
2019-02-18T04:06:29.110Z,0.00
2019-02-18T04:07:29.130Z,0.00
2019-02-18T04:08:29.118Z,0.00
2019-02-18T04:09:29.117Z,0.00
2019-02-18T04:10:29.131Z,0.00
2019-02-18T04:11:29.136Z,0.00
2019-02-18T04:12:29.139Z,0.00
2019-02-18T04:13:29.145Z,0.00
2019-02-18T04:14:29.148Z,0.00
2019-02-18T04:15:29.150Z,0.00
2019-02-18T04:16:29.154Z,0.00
2019-02-18T04:17:29.153Z,0.00
2019-02-18T04:18:29.163Z,0.00
2019-02-18T04:19:29.164Z,0.00
2019-02-18T04:20:29.169Z,0.00
2019-02-18T04:21:29.173Z,0.00
2019-02-18T04:22:29.177Z,0.00
2019-02-18T04:23:29.178Z,0.00
2019-02-18T04:24:29.208Z,0.00
2019-02-18T04:25:29.188Z,0.00
2019-02-18T04:26:29.193Z,0.00
2019-02-18T04:27:29.194Z,0.00
2019-02-18T04:28:29.195Z,0.00
2019-02-18T04:29:29.209Z,0.00
2019-02-18T04:30:29.210Z,0.00
2019-02-18T04:31:29.215Z,0.00
2019-02-18T04:32:29.217Z,0.00
2019-02-18T04:33:29.217Z,0.00
2019-02-18T04:34:29.223Z,0.00
2019-02-18T04:35:29.228Z,0.00
2019-02-18T04:36:29.246Z,0.00
2019-02-18T04:37:29.240Z,0.00
2019-02-18T04:38:29.239Z,0.00
2019-02-18T04:39:29.244Z,0.00
2019-02-18T04:40:29.241Z,0.00
2019-02-18T04:41:29.256Z,0.00
2019-02-18T04:42:29.258Z,0.00
2019-02-18T04:43:29.260Z,0.00
2019-02-18T04:44:29.263Z,0.00
2019-02-18T04:45:29.268Z,0.00
2019-02-18T04:46:29.273Z,0.00
2019-02-18T04:47:29.274Z,0.00
2019-02-18T04:48:29.295Z,0.00
2019-02-18T04:49:29.285Z,0.00
2019-02-18T04:50:29.290Z,0.00
2019-02-18T04:51:29.280Z,0.00
2019-02-18T04:52:29.286Z,0.00
2019-02-18T04:53:29.295Z,0.00
2019-02-18T04:54:29.301Z,0.00
2019-02-18T04:55:29.298Z,0.00
2019-02-18T04:56:29.306Z,0.00
2019-02-18T04:57:31.369Z,0.00
2019-02-18T04:58:29.311Z,0.00
2019-02-18T04:59:29.321Z,0.00
2019-02-18T05:00:29.322Z,0.00
2019-02-18T05:01:29.343Z,0.00
2019-02-18T05:02:29.333Z,0.00
2019-02-18T05:03:29.340Z,0.00
2019-02-18T05:04:29.338Z,0.00
2019-02-18T05:05:29.341Z,0.00
2019-02-18T05:06:29.346Z,0.00
2019-02-18T05:07:29.351Z,0.00
2019-02-18T05:08:29.351Z,0.00
2019-02-18T05:09:29.356Z,0.00
2019-02-18T05:10:29.363Z,0.00
2019-02-18T05:11:29.379Z,0.00
2019-02-18T05:12:29.370Z,0.00
2019-02-18T05:13:29.382Z,0.00
2019-02-18T05:14:29.386Z,0.00
2019-02-18T05:15:29.377Z,0.00
2019-02-18T05:16:29.380Z,0.00
2019-02-18T05:17:29.390Z,0.00
2019-02-18T05:18:29.388Z,0.00
2019-02-18T05:19:29.403Z,0.00
2019-02-18T05:20:29.407Z,0.00
2019-02-18T05:21:29.403Z,0.00
2019-02-18T05:22:29.405Z,0.00
2019-02-18T05:23:29.411Z,0.00
2019-02-18T05:24:29.410Z,0.00
2019-02-18T05:25:29.415Z,0.00
2019-02-18T05:26:29.421Z,0.00
2019-02-18T05:27:33.172Z,0.00
2019-02-18T05:28:29.426Z,4.00
2019-02-18T05:29:29.429Z,0.00
2019-02-18T05:30:29.688Z,0.00
2019-02-18T05:31:29.445Z,4.00
2019-02-18T05:32:29.436Z,0.00
2019-02-18T05:33:29.441Z,0.00
2019-02-18T05:34:29.449Z,4.00
2019-02-18T05:35:29.455Z,0.00
2019-02-18T05:36:29.457Z,4.00
2019-02-18T05:37:29.460Z,0.00
2019-02-18T05:38:29.466Z,0.00
2019-02-18T05:39:29.469Z,0.00
2019-02-18T05:40:29.471Z,0.00
2019-02-18T05:41:31.223Z,0.00
2019-02-18T05:42:29.479Z,0.00
2019-02-18T05:43:29.486Z,0.00
2019-02-18T05:44:29.485Z,0.00
2019-02-18T05:45:29.487Z,4.00
2019-02-18T05:46:29.500Z,4.00
2019-02-18T05:47:29.523Z,0.00
2019-02-18T05:48:29.495Z,0.00
2019-02-18T05:49:29.505Z,0.00
2019-02-18T05:50:29.508Z,0.00
2019-02-18T05:51:29.510Z,0.00
2019-02-18T05:52:29.523Z,0.00
2019-02-18T05:53:29.519Z,0.00
2019-02-18T05:54:29.513Z,4.00
2019-02-18T05:55:31.031Z,0.00
2019-02-18T05:56:29.526Z,4.00
2019-02-18T05:57:29.527Z,0.00
2019-02-18T05:58:29.530Z,0.00
2019-02-18T05:59:29.539Z,0.00
2019-02-18T06:00:29.543Z,0.00
2019-02-18T06:01:29.543Z,4.00
2019-02-18T06:02:29.614Z,0.00
2019-02-18T06:03:29.552Z,4.00
2019-02-18T06:04:29.549Z,4.00
2019-02-18T06:05:29.547Z,0.00
2019-02-18T06:06:29.556Z,4.00
2019-02-18T06:07:29.569Z,4.00
2019-02-18T06:08:29.572Z,4.00
2019-02-18T06:09:30.439Z,4.00
2019-02-18T06:10:29.570Z,4.00
2019-02-18T06:11:29.575Z,4.00
2019-02-18T06:12:29.578Z,4.00
2019-02-18T06:13:29.584Z,4.00
2019-02-18T06:14:29.594Z,4.00
2019-02-18T06:15:29.591Z,8.00
2019-02-18T06:16:29.602Z,8.00
2019-02-18T06:17:29.599Z,8.00
2019-02-18T06:18:29.604Z,12.00
2019-02-18T06:19:29.608Z,16.00
2019-02-18T06:20:29.607Z,16.00
2019-02-18T06:21:29.612Z,20.00
2019-02-18T06:22:29.611Z,24.00
2019-02-18T06:23:29.628Z,28.00
2019-02-18T06:24:29.617Z,36.00
2019-02-18T06:25:29.636Z,40.00
2019-02-18T06:26:29.629Z,48.00
2019-02-18T06:27:29.642Z,56.00
2019-02-18T06:28:29.637Z,64.00
2019-02-18T06:29:29.644Z,68.00
2019-02-18T06:30:29.642Z,80.00
2019-02-18T06:31:29.702Z,92.00
2019-02-18T06:32:29.646Z,108.00
2019-02-18T06:33:29.653Z,120.00
2019-02-18T06:34:29.658Z,132.00
2019-02-18T06:35:29.663Z,148.00
2019-02-18T06:36:29.663Z,164.00
2019-02-18T06:37:29.666Z,180.00
2019-02-18T06:38:29.673Z,192.00
2019-02-18T06:39:40.167Z,216.00
2019-02-18T06:40:29.681Z,236.00
2019-02-18T06:41:29.678Z,256.00
2019-02-18T06:42:29.684Z,276.00
2019-02-18T06:43:29.691Z,296.00
2019-02-18T06:44:29.694Z,320.00
2019-02-18T06:45:29.699Z,344.00
2019-02-18T06:46:29.703Z,372.00
2019-02-18T06:47:29.706Z,396.00
2019-02-18T06:48:29.703Z,424.00
2019-02-18T06:49:29.709Z,452.00
2019-02-18T06:50:29.719Z,488.00
2019-02-18T06:51:29.717Z,516.00
2019-02-18T06:52:29.726Z,548.00
2019-02-18T06:53:29.727Z,576.00
2019-02-18T06:54:29.735Z,608.00
2019-02-18T06:55:29.729Z,652.00
2019-02-18T06:56:29.732Z,680.00
2019-02-18T06:57:29.738Z,720.00
2019-02-18T06:58:29.746Z,752.00
2019-02-18T06:59:29.756Z,784.00
2019-02-18T07:00:29.747Z,820.00
2019-02-18T07:01:29.750Z,856.00
2019-02-18T07:02:29.758Z,892.00
2019-02-18T07:03:29.762Z,932.00
2019-02-18T07:04:30.485Z,976.00
2019-02-18T07:05:29.773Z,1016.00
2019-02-18T07:06:29.774Z,1060.00
2019-02-18T07:07:29.783Z,1108.00
2019-02-18T07:08:29.778Z,1132.00
2019-02-18T07:10:29.784Z,1208.00
2019-02-18T07:11:29.787Z,1248.00
2019-02-18T07:12:29.796Z,1288.00
2019-02-18T07:13:29.800Z,1324.00
2019-02-18T07:14:29.801Z,1364.00
2019-02-18T07:15:29.805Z,1404.00
2019-02-18T07:16:29.805Z,1440.00
2019-02-18T07:17:29.813Z,1476.00
2019-02-18T07:18:29.819Z,1528.00
2019-02-18T07:19:29.837Z,1568.00
2019-02-18T07:20:29.823Z,1592.00
2019-02-18T07:21:29.835Z,1640.00
2019-02-18T07:22:29.831Z,1668.00
2019-02-18T07:23:29.834Z,1708.00
2019-02-18T07:24:29.842Z,1744.00
2019-02-18T07:25:29.842Z,1780.00
2019-02-18T07:26:29.849Z,1824.00
2019-02-18T07:27:29.850Z,1864.00
2019-02-18T07:28:29.852Z,1912.00
2019-02-18T07:29:29.855Z,1932.00
2019-02-18T07:30:29.860Z,1972.00
2019-02-18T07:31:29.875Z,2008.00
2019-02-18T07:32:29.888Z,2040.00
2019-02-18T07:33:29.878Z,2072.00
2019-02-18T07:34:29.878Z,2108.00
2019-02-18T07:35:29.882Z,2156.00
2019-02-18T07:36:29.882Z,2192.00
2019-02-18T07:37:29.890Z,2212.00
2019-02-18T07:38:29.891Z,2244.00
2019-02-18T07:39:29.900Z,2280.00
2019-02-18T07:40:29.898Z,2316.00
2019-02-18T07:41:29.909Z,2348.00
2019-02-18T07:42:29.913Z,2376.00
2019-02-18T07:43:29.918Z,2416.00
2019-02-18T07:44:29.908Z,2456.00
2019-02-18T07:45:29.923Z,2480.00
2019-02-18T07:46:29.923Z,2508.00
2019-02-18T07:47:29.927Z,2536.00
2019-02-18T07:48:29.934Z,2564.00
2019-02-18T07:49:29.936Z,2600.00
2019-02-18T07:50:29.940Z,2656.00
2019-02-18T07:51:29.956Z,2696.00
2019-02-18T07:52:29.965Z,2740.00
2019-02-18T07:53:29.969Z,2732.00
2019-02-18T07:54:29.960Z,2768.00
2019-02-18T07:55:29.983Z,2808.00
2019-02-18T07:56:29.968Z,2836.00
2019-02-18T07:57:29.972Z,2868.00
2019-02-18T07:58:29.982Z,2916.00
2019-02-18T07:59:29.982Z,2940.00
2019-02-18T08:00:29.986Z,2972.00
2019-02-18T08:01:29.987Z,3044.00
2019-02-18T08:02:30.010Z,3096.00
2019-02-18T08:03:29.998Z,3076.00
2019-02-18T08:04:30.003Z,3124.00
2019-02-18T08:05:30.007Z,3152.00
2019-02-18T08:06:30.008Z,3232.00
2019-02-18T08:07:30.019Z,3232.00
2019-02-18T08:08:30.025Z,3264.00
2019-02-18T08:09:30.120Z,3408.00
2019-02-18T08:10:30.062Z,3316.00
2019-02-18T08:11:30.221Z,3588.00
2019-02-18T08:12:30.033Z,6808.00
2019-02-18T08:13:30.137Z,11476.00
2019-02-18T08:14:30.124Z,17984.00
2019-02-18T08:15:30.215Z,21632.00
2019-02-18T08:16:30.167Z,26368.00
2019-02-18T08:17:30.078Z,33664.00
2019-02-18T08:18:30.105Z,35136.00
2019-02-18T08:19:30.084Z,32000.00
2019-02-18T08:20:30.094Z,32704.00
2019-02-18T08:21:30.091Z,36224.00
2019-02-18T08:22:30.116Z,39360.00
2019-02-18T08:23:30.108Z,38464.00
2019-02-18T08:24:30.120Z,33248.00
2019-02-18T08:25:30.142Z,34080.00
2019-02-18T08:26:30.141Z,37792.00
2019-02-18T08:27:30.151Z,37664.00
2019-02-18T08:28:30.162Z,21056.00
2019-02-18T08:29:30.176Z,6848.00
2019-02-18T08:30:30.186Z,10100.00
2019-02-18T08:31:30.193Z,15680.00
2019-02-18T08:32:30.203Z,22752.00
2019-02-18T08:33:30.212Z,32096.00
2019-02-18T08:34:30.233Z,39680.00
2019-02-18T08:35:30.239Z,40256.00
2019-02-18T08:36:30.250Z,41216.00
2019-02-18T08:37:30.430Z,39904.00
2019-02-18T08:38:30.277Z,40064.00
2019-02-18T08:39:30.284Z,44224.00
2019-02-18T08:41:30.324Z,38144.00
2019-02-18T08:42:30.327Z,42272.00
2019-02-18T08:43:30.346Z,47456.00
2019-02-18T08:44:30.350Z,44768.00
2019-02-18T08:45:30.362Z,39680.00
2019-02-18T08:46:30.373Z,44864.00
2019-02-18T08:47:30.414Z,52736.00
2019-02-18T08:48:30.403Z,46784.00
2019-02-18T08:49:30.427Z,38528.00
2019-02-18T08:50:30.437Z,40704.00
2019-02-18T08:51:30.467Z,45280.00
2019-02-18T08:52:30.473Z,46304.00
2019-02-18T08:54:30.496Z,45248.00
2019-02-18T08:55:30.511Z,44608.00
2019-02-18T08:56:30.521Z,47200.00
2019-02-18T08:57:30.552Z,47648.00
2019-02-18T08:58:30.565Z,45152.00
2019-02-18T08:59:30.573Z,46656.00
2019-02-18T09:00:30.580Z,50560.00
2019-02-18T09:01:30.604Z,51328.00
2019-02-18T09:02:30.616Z,50144.00
2019-02-18T09:03:30.632Z,49600.00
2019-02-18T09:04:30.651Z,51008.00
2019-02-18T09:05:30.712Z,53792.00
2019-02-18T09:06:30.679Z,53792.00
2019-02-18T09:07:30.712Z,51296.00
2019-02-18T09:08:30.714Z,50816.00
2019-02-18T09:09:30.725Z,51776.00
2019-02-18T09:10:33.476Z,52512.00
2019-02-18T09:11:30.766Z,52704.00
2019-02-18T09:12:30.773Z,53920.00
2019-02-18T09:13:30.795Z,55488.00
2019-02-18T09:14:30.811Z,55040.00
2019-02-18T09:15:30.839Z,52928.00
2019-02-18T09:16:30.848Z,52704.00
2019-02-18T09:17:30.858Z,54144.00
2019-02-18T09:18:30.874Z,57024.00
2019-02-18T09:19:30.899Z,58144.00
2019-02-18T09:20:30.913Z,55712.00
2019-02-18T09:21:30.918Z,52256.00
2019-02-18T09:22:30.940Z,52128.00
2019-02-18T09:23:30.953Z,54880.00
2019-02-18T09:24:30.972Z,55360.00
2019-02-18T09:25:30.990Z,53312.00
2019-02-18T09:26:31.013Z,53952.00
2019-02-18T09:27:31.031Z,54912.00
2019-02-18T09:28:31.037Z,54048.00
2019-02-18T09:29:31.063Z,54976.00
2019-02-18T09:30:31.076Z,56576.00
2019-02-18T09:31:31.088Z,57632.00
2019-02-18T09:32:31.108Z,56800.00
2019-02-18T09:33:31.123Z,57824.00
2019-02-18T09:34:31.151Z,58944.00
2019-02-18T09:35:31.148Z,56288.00
2019-02-18T09:36:31.175Z,57664.00
2019-02-18T09:37:31.184Z,61856.00
2019-02-18T09:38:31.209Z,60192.00
2019-02-18T09:39:31.712Z,55808.00
2019-02-18T09:40:31.241Z,56256.00
2019-02-18T09:41:31.259Z,57888.00
2019-02-18T09:42:31.276Z,57632.00
2019-02-18T09:43:31.291Z,56640.00
2019-02-18T09:44:31.303Z,56192.00
2019-02-18T09:45:31.323Z,54496.00
2019-02-18T09:46:31.342Z,54336.00
2019-02-18T09:47:31.376Z,56544.00
2019-02-18T09:48:31.377Z,53952.00
2019-02-18T09:49:31.397Z,53920.00
2019-02-18T09:50:31.422Z,58208.00
2019-02-18T09:51:31.428Z,56384.00
2019-02-18T09:52:31.448Z,58240.00
2019-02-18T09:53:31.465Z,61120.00
2019-02-18T09:54:31.490Z,55136.00
2019-02-18T09:55:31.498Z,53952.00
2019-02-18T09:56:31.514Z,65792.00
2019-02-18T09:57:31.534Z,68864.00
2019-02-18T09:58:31.566Z,62432.00
2019-02-18T09:59:32.538Z,60864.00
2019-02-18T10:00:31.577Z,64192.00
2019-02-18T10:01:31.609Z,64448.00
2019-02-18T10:02:31.619Z,63264.00
2019-02-18T10:03:32.447Z,63680.00
2019-02-18T10:04:31.651Z,62752.00
2019-02-18T10:05:31.670Z,61760.00
2019-02-18T10:06:31.686Z,62464.00
2019-02-18T10:07:31.708Z,61312.00
2019-02-18T10:08:31.729Z,60416.00
2019-02-18T10:09:31.740Z,62752.00
2019-02-18T10:10:31.760Z,65984.00
2019-02-18T10:11:31.777Z,67584.00
2019-02-18T10:12:31.793Z,67104.00
2019-02-18T10:13:31.817Z,65376.00
2019-02-18T10:14:31.820Z,61120.00
2019-02-18T10:15:31.845Z,60032.00
2019-02-18T10:16:31.874Z,66528.00
2019-02-18T10:17:31.894Z,69120.00
2019-02-18T10:18:31.906Z,61504.00
2019-02-18T10:19:31.912Z,58112.00
2019-02-18T10:20:31.930Z,68352.00
2019-02-18T10:21:31.949Z,71840.00
2019-02-18T10:22:31.966Z,63200.00
2019-02-18T10:23:31.981Z,60416.00
2019-02-18T10:24:31.997Z,65536.00
2019-02-18T10:25:32.022Z,67776.00
2019-02-18T10:26:32.039Z,65696.00
2019-02-18T10:27:32.055Z,65120.00
2019-02-18T10:28:32.066Z,64576.00
2019-02-18T10:29:32.095Z,63200.00
2019-02-18T10:30:32.105Z,61216.00
2019-02-18T10:31:32.123Z,61088.00
2019-02-18T10:32:32.141Z,64704.00
2019-02-18T10:33:32.166Z,70080.00
2019-02-18T10:34:32.175Z,71488.00
2019-02-18T10:35:32.196Z,67744.00
2019-02-18T10:36:32.212Z,63520.00
2019-02-18T10:37:32.236Z,63392.00
2019-02-18T10:38:32.251Z,65248.00
2019-02-18T10:39:32.281Z,69792.00
2019-02-18T10:40:32.297Z,69792.00
2019-02-18T10:41:32.299Z,66080.00
2019-02-18T10:42:32.326Z,63072.00
2019-02-18T10:43:32.886Z,63840.00
2019-02-18T10:44:32.350Z,65152.00
2019-02-18T10:45:32.364Z,64032.00
2019-02-18T10:46:32.386Z,62944.00
2019-02-18T10:47:32.418Z,63584.00
2019-02-18T10:48:32.431Z,64448.00
2019-02-18T10:49:32.443Z,66688.00
2019-02-18T10:50:32.466Z,68608.00
2019-02-18T10:51:32.476Z,67072.00
2019-02-18T10:52:32.495Z,64704.00
2019-02-18T10:53:32.513Z,64416.00
2019-02-18T10:54:32.529Z,64416.00
2019-02-18T10:55:32.553Z,62592.00
2019-02-18T10:56:32.570Z,62080.00
2019-02-18T10:57:32.588Z,64992.00
2019-02-18T10:58:32.607Z,66624.00
2019-02-18T10:59:32.625Z,64448.00
2019-02-18T11:00:32.648Z,62656.00
2019-02-18T11:01:32.677Z,64128.00
2019-02-18T11:02:32.679Z,69664.00
2019-02-18T11:03:32.703Z,74400.00
2019-02-18T11:04:32.717Z,76576.00
2019-02-18T11:05:32.740Z,72800.00
2019-02-18T11:06:32.759Z,65376.00
2019-02-18T11:07:32.784Z,59424.00
2019-02-18T11:08:32.783Z,61472.00
2019-02-18T11:09:32.804Z,69760.00
2019-02-18T11:10:32.844Z,74656.00
2019-02-18T11:11:32.842Z,69856.00
2019-02-18T11:12:32.858Z,64544.00
2019-02-18T11:13:32.881Z,62752.00
2019-02-18T11:14:32.895Z,64416.00
2019-02-18T11:15:32.910Z,66816.00
2019-02-18T11:16:32.929Z,67520.00
2019-02-18T11:17:38.975Z,67520.00
2019-02-18T11:18:32.967Z,66400.00
2019-02-18T11:19:32.985Z,65152.00
2019-02-18T11:20:33.004Z,67488.00
2019-02-18T11:21:33.014Z,70240.00
2019-02-18T11:22:33.046Z,69728.00
2019-02-18T11:23:33.046Z,66112.00
2019-02-18T11:24:33.062Z,64512.00
2019-02-18T11:25:33.087Z,67680.00
2019-02-18T11:26:33.110Z,69216.00
2019-02-18T11:27:33.122Z,67616.00
2019-02-18T11:28:33.144Z,64352.00
2019-02-18T11:29:33.159Z,65280.00
2019-02-18T11:30:33.182Z,67008.00
2019-02-18T11:31:33.204Z,64384.00
2019-02-18T11:32:33.209Z,61024.00
2019-02-18T11:33:33.235Z,62816.00
2019-02-18T11:34:33.251Z,67808.00
2019-02-18T11:35:33.273Z,68320.00
2019-02-18T11:36:33.283Z,67232.00
2019-02-18T11:37:33.306Z,65248.00
2019-02-18T11:38:33.323Z,61824.00
2019-02-18T11:39:33.339Z,59424.00
2019-02-18T11:40:33.361Z,63008.00
2019-02-18T11:41:33.375Z,69632.00
2019-02-18T11:42:33.399Z,70368.00
2019-02-18T11:43:33.467Z,66144.00
2019-02-18T11:44:33.430Z,63616.00
2019-02-18T11:45:34.883Z,64704.00
2019-02-18T11:46:33.470Z,65824.00
2019-02-18T11:47:33.497Z,65824.00
2019-02-18T11:48:33.497Z,66912.00
2019-02-18T11:49:33.522Z,69344.00
2019-02-18T11:50:33.539Z,72352.00
2019-02-18T11:51:33.557Z,72768.00
2019-02-18T11:52:33.588Z,67488.00
2019-02-18T11:53:33.579Z,62944.00
2019-02-18T11:54:33.614Z,65088.00
2019-02-18T11:55:33.627Z,69568.00
2019-02-18T11:56:33.647Z,69760.00
2019-02-18T11:57:33.663Z,65120.00
2019-02-18T11:58:33.682Z,63936.00
2019-02-18T11:59:33.704Z,67680.00
2019-02-18T12:00:33.717Z,70944.00
2019-02-18T12:01:33.737Z,70720.00
2019-02-18T12:02:33.755Z,67360.00
2019-02-18T12:03:33.768Z,65984.00
2019-02-18T12:04:33.792Z,65376.00
2019-02-18T12:05:33.822Z,64960.00
2019-02-18T12:06:33.826Z,67616.00
2019-02-18T12:07:33.845Z,70464.00
2019-02-18T12:08:33.870Z,71552.00
2019-02-18T12:09:33.879Z,70112.00
2019-02-18T12:10:33.905Z,69568.00
2019-02-18T12:11:38.113Z,70144.00
2019-02-18T12:12:33.932Z,70176.00
2019-02-18T12:13:33.960Z,69408.00
2019-02-18T12:14:33.979Z,70464.00
2019-02-18T12:15:33.998Z,72512.00
2019-02-18T12:16:34.024Z,72384.00
2019-02-18T12:17:34.042Z,70720.00
2019-02-18T12:18:34.099Z,70432.00
2019-02-18T12:19:34.070Z,71584.00
2019-02-18T12:20:34.087Z,68480.00
2019-02-18T12:21:34.098Z,65280.00
2019-02-18T12:22:34.118Z,66944.00
2019-02-18T12:23:34.136Z,70144.00
2019-02-18T12:24:34.145Z,71424.00
2019-02-18T12:25:34.180Z,70976.00
2019-02-18T12:26:34.185Z,68000.00
2019-02-18T12:27:34.213Z,64800.00
2019-02-18T12:28:34.226Z,63776.00
2019-02-18T12:29:34.250Z,65984.00
2019-02-18T12:31:34.280Z,68512.00
2019-02-18T12:32:34.293Z,66848.00
2019-02-18T12:33:34.323Z,63616.00
2019-02-18T12:34:34.338Z,61952.00
2019-02-18T12:35:34.362Z,64704.00
2019-02-18T12:36:34.373Z,67744.00
2019-02-18T12:37:34.395Z,66720.00
2019-02-18T12:38:34.410Z,64640.00